createdAt,value
2018-04-17T00:01:09.521Z,7.70
2018-04-17T00:03:37.031Z,8.17
2018-04-17T00:06:05.246Z,7.30
2018-04-17T00:08:32.724Z,7.97
2018-04-17T00:11:00.784Z,8.30
2018-04-17T00:13:28.375Z,7.83
2018-04-17T00:15:56.680Z,7.70
2018-04-17T00:18:24.221Z,7.90
2018-04-17T00:20:51.684Z,7.07
2018-04-17T00:23:19.280Z,7.37
2018-04-17T00:25:46.839Z,7.77
2018-04-17T00:28:14.380Z,8.10
2018-04-17T00:30:41.888Z,7.73
2018-04-17T00:33:10.323Z,7.00
2018-04-17T00:35:37.775Z,7.80
2018-04-17T00:38:05.271Z,6.90
2018-04-17T00:40:33.499Z,8.03
2018-04-17T00:43:00.982Z,7.67
2018-04-17T00:45:28.560Z,8.33
2018-04-17T00:47:56.044Z,8.13
2018-04-17T00:50:24.296Z,8.20
2018-04-17T00:52:51.769Z,7.90
2018-04-17T00:55:19.996Z,9.50
2018-04-17T00:57:47.478Z,8.37
2018-04-17T01:00:14.979Z,10.00
2018-04-17T01:02:42.483Z,8.97
2018-04-17T01:05:09.952Z,8.83
2018-04-17T01:07:38.036Z,9.60
2018-04-17T01:10:06.283Z,10.07
2018-04-17T01:12:33.756Z,8.73
2018-04-17T01:15:01.233Z,8.60
2018-04-17T01:17:29.465Z,9.40
2018-04-17T01:19:56.957Z,10.50
2018-04-17T01:22:24.422Z,9.10
2018-04-17T01:24:52.662Z,9.67
2018-04-17T01:27:20.189Z,9.07
2018-04-17T01:29:47.668Z,9.60
2018-04-17T01:32:15.139Z,9.80
2018-04-17T01:34:42.614Z,9.80
2018-04-17T01:37:11.592Z,9.30
2018-04-17T01:39:39.783Z,9.13
2018-04-17T01:42:07.257Z,9.67
2018-04-17T01:44:35.600Z,9.47
2018-04-17T01:47:03.067Z,9.27
2018-04-17T01:49:30.543Z,9.70
2018-04-17T01:51:58.777Z,9.40
2018-04-17T01:54:26.266Z,9.80
2018-04-17T01:56:53.732Z,9.83
2018-04-17T01:59:22.087Z,11.30
2018-04-17T02:01:49.755Z,9.17
2018-04-17T02:04:17.251Z,10.60
2018-04-17T02:06:44.736Z,9.50
2018-04-17T02:09:12.200Z,10.40
2018-04-17T02:11:39.691Z,9.73
2018-04-17T02:14:07.942Z,10.00
2018-04-17T02:16:35.419Z,10.10
2018-04-17T02:19:03.860Z,10.50
2018-04-17T02:21:31.406Z,9.53
2018-04-17T02:23:59.023Z,11.50
2018-04-17T02:26:26.630Z,9.70
2018-04-17T02:28:54.139Z,10.00
2018-04-17T02:31:21.648Z,10.30
2018-04-17T02:33:49.112Z,10.17
2018-04-17T02:36:16.612Z,10.60
2018-04-17T02:38:44.076Z,11.20
2018-04-17T02:41:12.315Z,10.20
2018-04-17T02:43:39.781Z,10.70
2018-04-17T02:46:07.256Z,10.03
2018-04-17T02:48:35.513Z,10.30
2018-04-17T02:51:03.014Z,9.97
2018-04-17T02:53:31.257Z,9.20
2018-04-17T02:55:58.740Z,11.13
2018-04-17T02:58:26.978Z,9.93
2018-04-17T03:00:54.453Z,9.70
2018-04-17T03:03:22.707Z,10.63
2018-04-17T03:05:50.184Z,11.20
2018-04-17T03:08:19.163Z,11.40
2018-04-17T03:10:46.658Z,10.57
2018-04-17T03:13:14.905Z,10.30
2018-04-17T03:15:42.448Z,9.90
2018-04-17T03:18:09.937Z,11.03
2018-04-17T03:20:38.203Z,10.53
2018-04-17T03:23:05.660Z,9.87
2018-04-17T03:25:33.901Z,10.17
2018-04-17T03:28:01.849Z,9.87
2018-04-17T03:30:29.336Z,9.97
2018-04-17T03:32:56.808Z,10.43
2018-04-17T03:35:24.287Z,12.70
2018-04-17T03:37:52.560Z,9.43
2018-04-17T03:40:20.028Z,10.23
2018-04-17T03:42:48.259Z,9.97
2018-04-17T03:45:15.732Z,9.53
2018-04-17T03:47:44.074Z,8.47
2018-04-17T03:50:11.539Z,9.93
2018-04-17T03:52:39.023Z,9.60
2018-04-17T03:55:06.504Z,10.50
2018-04-17T03:57:34.741Z,9.23
2018-04-17T04:00:02.223Z,10.63
2018-04-17T04:02:30.559Z,9.50
2018-04-17T04:04:58.024Z,10.00
2018-04-17T04:07:25.512Z,9.63
2018-04-17T04:09:53.749Z,9.70
2018-04-17T04:12:21.242Z,10.10
2018-04-17T04:14:48.715Z,10.10
2018-04-17T04:17:28.926Z,9.80
2018-04-17T04:20:08.324Z,9.63
2018-04-17T04:22:48.521Z,9.23
2018-04-17T04:25:25.890Z,9.60
2018-04-17T04:27:53.379Z,9.90
2018-04-17T04:30:22.586Z,9.30
2018-04-17T04:32:50.069Z,9.67
2018-04-17T04:35:18.322Z,10.57
2018-04-17T04:37:46.576Z,9.70
2018-04-17T04:40:14.070Z,10.30
2018-04-17T04:42:42.325Z,9.63
2018-04-17T04:45:09.800Z,10.07
2018-04-17T04:47:38.116Z,10.50
2018-04-17T04:50:05.667Z,9.47
2018-04-17T04:52:33.171Z,10.57
2018-04-17T04:55:00.635Z,11.00
2018-04-17T04:57:28.197Z,10.20
2018-04-17T04:59:55.680Z,10.07
2018-04-17T05:02:23.925Z,10.20
2018-04-17T05:04:52.982Z,10.63
2018-04-17T05:07:20.407Z,10.70
2018-04-17T05:09:48.673Z,10.10
2018-04-17T05:12:16.929Z,10.33
2018-04-17T05:14:44.585Z,10.20
2018-04-17T05:17:12.071Z,9.70
2018-04-17T05:19:40.327Z,10.30
2018-04-17T05:22:07.808Z,9.57
2018-04-17T05:24:36.071Z,9.60
2018-04-17T05:27:03.646Z,11.00
2018-04-17T05:29:31.132Z,10.00
2018-04-17T05:31:58.612Z,9.40
2018-04-17T05:34:26.109Z,10.40
2018-04-17T05:36:54.452Z,10.30
2018-04-17T05:39:21.996Z,10.70
2018-04-17T05:41:49.507Z,10.80
2018-04-17T05:44:17.764Z,10.40
2018-04-17T05:46:46.735Z,10.27
2018-04-17T05:49:14.219Z,10.63
2018-04-17T05:51:41.678Z,10.93
2018-04-17T05:54:09.963Z,11.00
2018-04-17T05:56:38.272Z,10.80
2018-04-17T05:59:05.748Z,10.27
2018-04-17T06:01:34.061Z,11.00
2018-04-17T06:04:02.356Z,10.93
2018-04-17T06:06:31.564Z,11.07
2018-04-17T06:08:59.085Z,10.27
2018-04-17T06:11:26.733Z,10.30
2018-04-17T06:13:54.475Z,9.90
2018-04-17T06:16:22.050Z,11.90
2018-04-17T06:18:49.536Z,10.93
2018-04-17T06:21:17.017Z,10.80
2018-04-17T06:23:44.561Z,12.27
2018-04-17T06:26:12.809Z,10.40
2018-04-17T06:28:40.357Z,11.27
2018-04-17T06:31:07.852Z,10.97
2018-04-17T06:33:36.119Z,10.40
2018-04-17T06:36:03.609Z,11.43
2018-04-17T06:38:31.084Z,11.67
2018-04-17T06:40:58.821Z,11.93
2018-04-17T06:43:26.469Z,11.43
2018-04-17T06:45:54.784Z,11.87
2018-04-17T06:48:22.548Z,11.40
2018-04-17T06:50:50.058Z,11.03
2018-04-17T06:53:17.525Z,11.20
2018-04-17T06:55:45.944Z,12.63
2018-04-17T06:58:13.665Z,10.23
2018-04-17T07:00:42.086Z,12.03
2018-04-17T07:03:09.617Z,11.00
2018-04-17T07:05:37.846Z,10.50
2018-04-17T07:08:05.484Z,11.87
2018-04-17T07:10:32.962Z,12.50
2018-04-17T07:13:00.520Z,12.70
2018-04-17T07:15:28.058Z,12.20
2018-04-17T07:17:55.764Z,12.97
2018-04-17T07:20:24.027Z,12.03
2018-04-17T07:22:51.547Z,12.27
2018-04-17T07:25:19.009Z,13.33
2018-04-17T07:27:46.503Z,13.10
2018-04-17T07:30:13.978Z,14.10
2018-04-17T07:32:42.239Z,13.80
2018-04-17T07:35:11.215Z,14.07
2018-04-17T07:37:38.800Z,12.47
2018-04-17T07:40:06.339Z,13.47
2018-04-17T07:42:33.832Z,13.60
2018-04-17T07:45:02.160Z,15.20
2018-04-17T07:47:29.706Z,13.27
2018-04-17T07:49:57.899Z,13.70
2018-04-17T07:52:25.368Z,13.60
2018-04-17T07:54:53.632Z,13.70
2018-04-17T07:57:21.106Z,13.13
2018-04-17T07:59:48.611Z,14.17
2018-04-17T08:02:16.091Z,14.10
2018-04-17T08:04:43.581Z,14.30
2018-04-17T08:07:11.049Z,14.53
2018-04-17T08:09:39.296Z,14.80
2018-04-17T08:12:06.764Z,14.57
2018-04-17T08:14:34.344Z,15.53
2018-04-17T08:17:01.827Z,14.57
2018-04-17T08:19:29.330Z,14.90
2018-04-17T08:21:56.798Z,15.67
2018-04-17T08:24:24.271Z,13.60
2018-04-17T08:26:52.511Z,15.90
2018-04-17T08:29:20.029Z,14.90
2018-04-17T08:31:47.593Z,14.60
2018-04-17T08:34:15.057Z,14.73
2018-04-17T08:36:42.539Z,16.40
2018-04-17T08:39:10.107Z,16.60
2018-04-17T08:41:37.653Z,15.70
2018-04-17T08:44:05.201Z,15.40
2018-04-17T08:46:32.808Z,15.93
2018-04-17T08:49:01.796Z,15.47
2018-04-17T08:51:29.398Z,16.67
2018-04-17T08:53:56.893Z,15.77
2018-04-17T08:56:24.403Z,16.23
2018-04-17T08:58:52.765Z,16.50
2018-04-17T09:01:21.023Z,16.63
2018-04-17T09:03:48.533Z,16.10
2018-04-17T09:06:16.624Z,16.27
2018-04-17T09:08:44.714Z,18.63
2018-04-17T09:11:12.197Z,16.73
2018-04-17T09:13:40.493Z,17.07
2018-04-17T09:16:08.086Z,17.20
2018-04-17T09:18:35.741Z,17.47
2018-04-17T09:21:04.056Z,17.07
2018-04-17T09:23:31.644Z,17.13
2018-04-17T09:26:00.052Z,16.80
2018-04-17T09:28:27.582Z,16.93
2018-04-17T09:30:55.960Z,17.30
2018-04-17T09:33:24.276Z,16.00
2018-04-17T09:35:51.879Z,15.30
2018-04-17T09:38:19.526Z,15.80
2018-04-17T09:40:47.009Z,16.50
2018-04-17T09:43:15.274Z,15.77
2018-04-17T09:45:43.530Z,16.10
2018-04-17T09:48:11.078Z,12.90
2018-04-17T09:50:38.648Z,14.57
2018-04-17T09:53:06.113Z,14.30
2018-04-17T09:55:34.105Z,15.50
2018-04-17T09:58:02.366Z,14.33
2018-04-17T10:00:29.887Z,15.03
2018-04-17T10:02:57.379Z,15.20
2018-04-17T10:05:24.875Z,16.30
2018-04-17T10:07:52.358Z,17.07
2018-04-17T10:10:19.866Z,17.70
2018-04-17T10:12:48.123Z,19.90
2018-04-17T10:15:15.644Z,17.20
2018-04-17T10:17:43.155Z,18.37
2018-04-17T10:20:10.621Z,17.30
2018-04-17T10:22:38.881Z,18.73
2018-04-17T10:25:06.394Z,17.93
2018-04-17T10:27:33.894Z,16.40
2018-04-17T10:30:01.405Z,17.47
2018-04-17T10:32:29.057Z,17.07
2018-04-17T10:34:56.532Z,16.20
2018-04-17T10:37:24.057Z,17.50
2018-04-17T10:39:52.315Z,16.43
2018-04-17T10:42:20.577Z,15.13
2018-04-17T10:44:48.120Z,14.80
2018-04-17T10:47:15.650Z,13.90
2018-04-17T10:49:43.136Z,10.70
2018-04-17T10:52:10.625Z,10.27
2018-04-17T10:54:38.997Z,10.10
2018-04-17T10:57:07.262Z,10.40
2018-04-17T10:59:34.737Z,11.83
2018-04-17T11:02:03.098Z,9.63
2018-04-17T11:04:31.030Z,9.27
2018-04-17T11:06:58.523Z,8.67
2018-04-17T11:09:26.007Z,8.80
2018-04-17T11:11:54.267Z,13.00
2018-04-17T11:14:22.539Z,12.73
2018-04-17T11:16:51.512Z,12.53
2018-04-17T11:19:19.162Z,11.63
2018-04-17T11:21:46.635Z,11.60
2018-04-17T11:24:14.330Z,10.83
2018-04-17T11:26:42.581Z,14.83
2018-04-17T11:29:10.301Z,14.53
2018-04-17T11:31:37.684Z,15.20
2018-04-17T11:34:05.198Z,15.93
2018-04-17T11:36:32.691Z,14.77
2018-04-17T11:39:07.004Z,15.90
2018-04-17T11:41:34.498Z,14.97
2018-04-17T11:44:02.903Z,11.97
2018-04-17T11:46:30.385Z,13.10
2018-04-17T11:48:57.945Z,12.83
2018-04-17T11:51:25.514Z,10.80
2018-04-17T11:53:53.946Z,13.83
2018-04-17T11:56:22.213Z,14.50
2018-04-17T11:58:50.474Z,13.97
2018-04-17T12:01:18.086Z,12.53
2018-04-17T12:03:45.569Z,10.60
2018-04-17T12:06:13.069Z,11.83
2018-04-17T12:08:41.333Z,14.03
2018-04-17T12:11:09.565Z,12.80
2018-04-17T12:13:37.037Z,11.80
2018-04-17T12:16:04.545Z,12.27
2018-04-17T12:18:32.797Z,11.00
2018-04-17T12:21:01.063Z,10.33
2018-04-17T12:23:28.563Z,12.37
2018-04-17T12:25:56.064Z,13.23
2018-04-17T12:28:23.577Z,13.30
2018-04-17T12:30:51.100Z,13.90
2018-04-17T12:33:18.585Z,12.20
2018-04-17T12:35:46.073Z,14.23
2018-04-17T12:38:13.718Z,14.33
2018-04-17T12:40:41.386Z,13.43
2018-04-17T12:43:09.006Z,13.43
2018-04-17T12:45:37.249Z,15.33
2018-04-17T12:48:04.790Z,13.50
2018-04-17T12:50:32.278Z,11.93
2018-04-17T12:52:59.941Z,14.90
2018-04-17T12:55:29.059Z,14.57
2018-04-17T12:57:57.329Z,14.57
2018-04-17T13:00:24.905Z,13.67
2018-04-17T13:02:52.575Z,13.03
2018-04-17T13:05:20.095Z,12.87
2018-04-17T13:07:47.665Z,13.87
2018-04-17T13:10:16.031Z,12.23
2018-04-17T13:12:43.762Z,12.40
2018-04-17T13:15:11.262Z,12.60
2018-04-17T13:17:38.763Z,12.90
2018-04-17T13:20:06.264Z,12.73
2018-04-17T13:22:33.804Z,13.97
2018-04-17T13:25:01.294Z,14.43
2018-04-17T13:27:28.785Z,14.60
2018-04-17T13:29:56.309Z,11.83
2018-04-17T13:32:23.793Z,15.23
2018-04-17T13:34:51.381Z,12.50
2018-04-17T13:37:19.317Z,13.10
2018-04-17T13:39:47.576Z,13.03
2018-04-17T13:42:15.891Z,13.00
2018-04-17T13:44:43.437Z,13.20
2018-04-17T13:47:11.897Z,11.77
2018-04-17T13:49:40.262Z,11.13
2018-04-17T13:52:08.386Z,11.93
2018-04-17T13:54:35.890Z,9.93
2018-04-17T13:57:03.407Z,11.27
2018-04-17T13:59:30.884Z,11.43
2018-04-17T14:01:58.407Z,12.00
2018-04-17T14:04:26.004Z,12.90
2018-04-17T14:06:53.668Z,13.17
2018-04-17T14:09:21.152Z,13.17
2018-04-17T14:11:49.417Z,12.60
2018-04-17T14:14:16.932Z,11.73
2018-04-17T14:16:45.270Z,12.63
2018-04-17T14:19:13.514Z,10.73
2018-04-17T14:21:41.013Z,10.93
2018-04-17T14:24:09.283Z,10.57
2018-04-17T14:26:38.461Z,9.90
2018-04-17T14:29:06.131Z,10.53
2018-04-17T14:31:34.374Z,10.90
2018-04-17T14:34:01.889Z,10.63
2018-04-17T14:36:29.369Z,10.80
2018-04-17T14:38:56.886Z,9.83
2018-04-17T14:41:25.131Z,8.93
2018-04-17T14:43:52.617Z,9.27
2018-04-17T14:46:20.867Z,9.10
2018-04-17T14:48:48.446Z,8.50
2018-04-17T14:51:15.946Z,10.10
2018-04-17T14:53:43.546Z,11.50
2018-04-17T14:56:11.032Z,12.70
2018-04-17T14:58:39.287Z,10.43
2018-04-17T15:01:06.791Z,10.50
2018-04-17T15:03:34.401Z,11.30
2018-04-17T15:06:01.957Z,12.57
2018-04-17T15:08:29.557Z,11.60
2018-04-17T15:10:57.046Z,11.03
2018-04-17T15:13:24.662Z,11.80
2018-04-17T15:15:53.026Z,11.50
2018-04-17T15:18:20.537Z,11.60
2018-04-17T15:20:48.041Z,12.27
2018-04-17T15:23:15.648Z,10.90
2018-04-17T15:25:43.145Z,12.77
2018-04-17T15:28:10.623Z,9.53
2018-04-17T15:30:38.900Z,8.17
2018-04-17T15:33:07.166Z,7.83
2018-04-17T15:35:34.726Z,7.70
2018-04-17T15:38:02.188Z,7.00
2018-04-17T15:40:30.442Z,8.50
2018-04-17T15:42:57.907Z,8.13
2018-04-17T15:45:26.163Z,7.80
2018-04-17T15:47:53.616Z,7.80
2018-04-17T15:50:21.118Z,7.40
2018-04-17T15:52:49.364Z,6.83
2018-04-17T15:55:16.845Z,9.30
2018-04-17T15:57:44.333Z,7.90
2018-04-17T16:00:11.813Z,7.40
2018-04-17T16:02:39.408Z,7.00
2018-04-17T16:05:08.402Z,7.53
2018-04-17T16:07:35.932Z,7.57
2018-04-17T16:10:03.418Z,8.60
2018-04-17T16:12:30.878Z,9.50
2018-04-17T16:14:58.456Z,10.03
2018-04-17T16:17:26.714Z,9.43
2018-04-17T16:19:54.179Z,9.10
2018-04-17T16:22:22.444Z,9.17
2018-04-17T16:24:49.922Z,7.03
2018-04-17T16:27:18.193Z,7.70
2018-04-17T16:29:46.428Z,8.30
2018-04-17T16:32:14.034Z,8.43
2018-04-17T16:34:42.272Z,8.60
2018-04-17T16:37:09.761Z,7.10
2018-04-17T16:39:38.069Z,7.67
2018-04-17T16:42:05.609Z,7.40
2018-04-17T16:44:33.102Z,7.10
2018-04-17T16:47:00.600Z,6.33
2018-04-17T16:49:29.079Z,6.47
2018-04-17T16:51:57.141Z,6.93
2018-04-17T16:54:24.717Z,5.90
2018-04-17T16:56:52.998Z,7.23
2018-04-17T16:59:21.883Z,7.03
2018-04-17T17:01:50.204Z,6.90
2018-04-17T17:04:17.858Z,7.00
2018-04-17T17:06:45.404Z,6.70
2018-04-17T17:09:12.947Z,6.20
2018-04-17T17:11:41.208Z,6.50
2018-04-17T17:14:09.580Z,6.63
2018-04-17T17:16:37.037Z,8.10
2018-04-17T17:19:04.581Z,8.17
2018-04-17T17:21:32.063Z,9.00
2018-04-17T17:24:00.374Z,8.20
2018-04-17T17:26:28.024Z,8.67
2018-04-17T17:28:56.365Z,8.30
2018-04-17T17:31:23.848Z,7.53
2018-04-17T17:33:52.104Z,8.47
2018-04-17T17:36:19.589Z,7.40
2018-04-17T17:38:47.167Z,8.03
2018-04-17T17:41:14.707Z,8.23
2018-04-17T17:43:42.183Z,7.13
2018-04-17T17:46:09.692Z,6.70
2018-04-17T17:48:37.971Z,8.93
2018-04-17T17:51:05.466Z,8.40
2018-04-17T17:53:33.725Z,7.60
2018-04-17T17:56:02.010Z,6.40
2018-04-17T17:58:29.492Z,7.17
2018-04-17T18:00:57.019Z,7.60
2018-04-17T18:03:24.597Z,7.30
2018-04-17T18:05:52.165Z,6.97
2018-04-17T18:08:19.932Z,6.80
2018-04-17T18:10:47.602Z,6.60
2018-04-17T18:13:15.398Z,6.60
2018-04-17T18:15:44.026Z,7.33
2018-04-17T18:18:11.520Z,5.90
2018-04-17T18:20:40.143Z,6.97
2018-04-17T18:23:09.893Z,6.80
2018-04-17T18:25:37.651Z,6.70
2018-04-17T18:28:06.124Z,6.23
2018-04-17T18:30:33.627Z,7.00
2018-04-17T18:33:01.166Z,6.50
2018-04-17T18:35:28.709Z,5.47
2018-04-17T18:37:56.247Z,6.57
2018-04-17T18:40:23.835Z,6.30
2018-04-17T18:42:51.332Z,5.97
2018-04-17T18:45:19.118Z,6.17
2018-04-17T18:47:47.388Z,8.03
2018-04-17T18:50:15.655Z,7.47
2018-04-17T18:52:43.960Z,6.70
2018-04-17T18:55:11.476Z,7.07
2018-04-17T18:57:38.983Z,7.00
2018-04-17T19:00:06.476Z,5.50
2018-04-17T19:02:33.949Z,7.03
2018-04-17T19:05:01.449Z,7.03
2018-04-17T19:07:28.946Z,6.80
2018-04-17T19:09:56.425Z,7.43
2018-04-17T19:12:24.833Z,7.13
2018-04-17T19:14:53.080Z,7.20
2018-04-17T19:17:20.542Z,7.33
2018-04-17T19:19:48.054Z,6.77
2018-04-17T19:22:15.590Z,7.53
2018-04-17T19:24:43.239Z,8.43
2018-04-17T19:27:11.473Z,9.77
2018-04-17T19:29:38.968Z,10.57
2018-04-17T19:32:07.220Z,9.60
2018-04-17T19:34:34.715Z,9.60
2018-04-17T19:37:02.211Z,8.80
2018-04-17T19:39:29.692Z,8.93
2018-04-17T19:41:57.181Z,8.53
2018-04-17T19:44:25.517Z,8.90
2018-04-17T19:46:52.996Z,7.93
2018-04-17T19:49:21.239Z,8.57
2018-04-17T19:51:49.669Z,8.53
2018-04-17T19:54:17.926Z,9.80
2018-04-17T19:56:46.158Z,9.43
2018-04-17T19:59:14.563Z,10.20
2018-04-17T20:01:42.069Z,9.10
2018-04-17T20:04:09.903Z,9.10
2018-04-17T20:06:38.305Z,10.23
2018-04-17T20:09:05.860Z,10.40
2018-04-17T20:11:34.114Z,12.37
2018-04-17T20:14:01.697Z,9.83
2018-04-17T20:16:29.935Z,10.53
2018-04-17T20:18:57.538Z,11.13
2018-04-17T20:21:25.777Z,11.23
2018-04-17T20:23:53.510Z,10.23
2018-04-17T20:26:21.007Z,11.30
2018-04-17T20:28:49.289Z,12.20
2018-04-17T20:31:17.532Z,12.00
2018-04-17T20:33:45.023Z,11.40
2018-04-17T20:36:13.304Z,10.50
2018-04-17T20:38:41.564Z,11.90
2018-04-17T20:41:10.605Z,11.07
2018-04-17T20:43:38.110Z,10.93
2018-04-17T20:46:06.099Z,10.57
2018-04-17T20:48:34.386Z,10.63
2018-04-17T20:51:01.996Z,10.50
2018-04-17T20:53:29.499Z,10.07
2018-04-17T20:55:57.912Z,11.20
2018-04-17T20:58:25.439Z,9.73
2018-04-17T21:00:53.728Z,9.83
2018-04-17T21:03:21.220Z,10.43
2018-04-17T21:05:48.697Z,10.23
2018-04-17T21:08:16.182Z,11.10
2018-04-17T21:10:44.540Z,12.73
2018-04-17T21:13:12.063Z,10.87
2018-04-17T21:15:39.660Z,11.33
2018-04-17T21:18:07.170Z,11.00
2018-04-17T21:20:34.662Z,10.20
2018-04-17T21:23:02.178Z,9.80
2018-04-17T21:25:29.679Z,10.37
2018-04-17T21:27:57.164Z,10.23
2018-04-17T21:30:25.415Z,10.40
2018-04-17T21:32:52.902Z,11.77
2018-04-17T21:35:21.312Z,10.83
2018-04-17T21:37:49.017Z,10.50
2018-04-17T21:40:16.539Z,10.50
2018-04-17T21:42:44.854Z,10.17
2018-04-17T21:45:12.941Z,11.20
2018-04-17T21:47:42.296Z,11.10
2018-04-17T21:50:09.809Z,10.80
2018-04-17T21:52:38.274Z,12.70
2018-04-17T21:55:05.887Z,11.67
2018-04-17T21:57:33.374Z,11.10
2018-04-17T22:00:01.011Z,11.87
2018-04-17T22:02:28.495Z,11.97
2018-04-17T22:04:56.167Z,12.30
2018-04-17T22:07:23.748Z,11.03
2018-04-17T22:09:51.279Z,13.00
2018-04-17T22:12:19.568Z,13.30
2018-04-17T22:14:47.185Z,12.97
2018-04-17T22:17:14.696Z,13.50
2018-04-17T22:19:43.048Z,12.17
2018-04-17T22:22:11.333Z,13.00
2018-04-17T22:24:38.845Z,12.07
2018-04-17T22:27:06.328Z,12.30
2018-04-17T22:29:34.035Z,12.13
2018-04-17T22:35:05.413Z,12.47
2018-04-17T22:43:03.207Z,11.27
2018-04-17T22:45:31.218Z,12.33
2018-04-17T22:47:58.684Z,11.27
2018-04-17T22:50:26.930Z,12.50
2018-04-17T22:52:54.428Z,12.30
2018-04-17T22:55:22.673Z,11.73
2018-04-17T22:57:50.156Z,12.70
2018-04-17T23:00:18.426Z,13.37
2018-04-17T23:02:45.891Z,14.20
2018-04-17T23:05:14.184Z,14.50
2018-04-17T23:07:41.660Z,15.07
2018-04-17T23:10:09.145Z,12.80
2018-04-17T23:12:36.609Z,13.40
2018-04-17T23:15:04.100Z,13.07
2018-04-17T23:17:32.340Z,13.83
2018-04-17T23:19:59.827Z,14.20
2018-04-17T23:22:27.315Z,14.27
2018-04-17T23:24:54.800Z,14.33
2018-04-17T23:27:22.288Z,14.03
2018-04-17T23:29:49.765Z,14.03
2018-04-17T23:32:18.007Z,12.67
2018-04-17T23:34:45.472Z,13.83
2018-04-17T23:37:12.952Z,14.13
2018-04-17T23:39:41.199Z,13.80
2018-04-17T23:42:08.768Z,15.47
2018-04-17T23:44:36.252Z,14.77
2018-04-17T23:47:03.725Z,14.20
2018-04-17T23:49:31.213Z,15.00
2018-04-17T23:51:58.918Z,15.00
2018-04-17T23:54:26.418Z,15.10
2018-04-17T23:56:53.909Z,13.50
2018-04-17T23:59:21.370Z,13.50
